GMFO/OUD METAR and TAF weather

Enter ICAO airport designator
Station Type Date Time Source
GMFO METAR 2020/01/18 21:30 UTC NOAA

GMFO 182130Z 18006KT CAVOK 12/03 Q1026 NOSIG


Station Type Date Time Source
GMFO Decoded METAR 2020/01/18 21:30 UTC NOAA

Oujda, Morocco (GMFO) 34-47N 001-56W 470M
Jan 18, 2020 - 04:30 PM EST / 2020.01.18 2130 UTC
Wind: from the S (180 degrees) at 7 MPH (6 KT):0
Visibility: greater than 7 mile(s):0
Temperature: 53 F (12 C)
Dew Point: 37 F (3 C)
Relative Humidity: 54%
Pressure (altimeter): 30.30 in. Hg (1026 hPa)
ob: GMFO 182130Z 18006KT CAVOK 12/03 Q1026 NOSIG
cycle: 21

Station Type Date Time Source
GMFO TAF 2020/01/18 18:31 UTC NOAA

TAF GMFO 181700Z 1818/1924 04010KT 9999 SCT026 BKN080
TEMPO 1820/1906 6000 SHRA BKN026

Example: see airport list